createdAt,value
2022-08-13T00:00:03.699Z,52.99
2022-08-13T00:01:03.705Z,52.99
2022-08-13T00:02:03.867Z,52.99
2022-08-13T00:03:03.716Z,52.70
2022-08-13T00:04:03.725Z,52.97
2022-08-13T00:05:43.321Z,52.70
2022-08-13T00:06:03.715Z,52.70
2022-08-13T00:07:03.729Z,53.09
2022-08-13T00:08:03.727Z,52.61
2022-08-13T00:09:03.738Z,52.87
2022-08-13T00:10:03.733Z,53.55
2022-08-13T00:11:03.834Z,53.35
2022-08-13T00:12:03.762Z,53.19
2022-08-13T00:13:03.759Z,52.87
2022-08-13T00:14:03.780Z,52.89
2022-08-13T00:15:03.769Z,52.97
2022-08-13T00:16:03.758Z,52.70
2022-08-13T00:17:03.809Z,52.97
2022-08-13T00:18:04.766Z,52.89
2022-08-13T00:19:03.774Z,52.99
2022-08-13T00:20:03.782Z,53.16
2022-08-13T00:21:03.803Z,53.25
2022-08-13T00:22:28.524Z,53.35
2022-08-13T00:23:17.464Z,53.16
2022-08-13T00:24:03.807Z,52.77
2022-08-13T00:25:10.546Z,52.97
2022-08-13T00:26:03.803Z,52.87
2022-08-13T00:27:03.799Z,53.45
2022-08-13T00:28:03.802Z,53.45
2022-08-13T00:29:03.817Z,53.64
2022-08-13T00:30:03.821Z,53.64
2022-08-13T00:31:03.826Z,54.13
2022-08-13T00:32:03.819Z,53.74
2022-08-13T00:33:03.871Z,53.74
2022-08-13T00:34:03.855Z,53.93
2022-08-13T00:35:03.832Z,54.13
2022-08-13T00:36:03.838Z,53.74
2022-08-13T00:37:06.105Z,54.03
2022-08-13T00:38:03.866Z,53.64
2022-08-13T00:39:03.882Z,53.74
2022-08-13T00:40:18.038Z,54.22
2022-08-13T00:41:03.998Z,54.03
2022-08-13T00:42:03.904Z,53.64
2022-08-13T00:43:05.216Z,53.74
2022-08-13T00:44:03.870Z,53.64
2022-08-13T00:45:08.527Z,53.45
2022-08-13T00:46:03.889Z,53.74
2022-08-13T00:47:03.913Z,53.55
2022-08-13T00:48:03.900Z,53.74
2022-08-13T00:49:03.901Z,54.03
2022-08-13T00:50:03.914Z,53.93
2022-08-13T00:51:03.922Z,53.93
2022-08-13T00:52:03.927Z,53.74
2022-08-13T00:53:03.932Z,53.93
2022-08-13T00:54:04.916Z,54.41
2022-08-13T00:55:03.932Z,54.32
2022-08-13T00:56:03.916Z,54.39
2022-08-13T00:57:03.931Z,54.03
2022-08-13T00:58:03.916Z,54.22
2022-08-13T00:59:03.927Z,53.83
2022-08-13T01:00:03.935Z,53.81
2022-08-13T01:01:03.966Z,53.71
2022-08-13T01:02:03.981Z,53.91
2022-08-13T01:03:16.485Z,54.68
2022-08-13T01:04:11.257Z,54.39
2022-08-13T01:05:04.044Z,54.49
2022-08-13T01:06:03.957Z,54.97
2022-08-13T01:07:12.643Z,55.07
2022-08-13T01:08:03.962Z,54.77
2022-08-13T01:09:03.977Z,54.87
2022-08-13T01:10:17.137Z,54.77
2022-08-13T01:11:04.089Z,54.77
2022-08-13T01:12:03.984Z,54.97
2022-08-13T01:13:03.977Z,54.87
2022-08-13T01:14:03.978Z,54.39
2022-08-13T01:15:03.991Z,54.49
2022-08-13T01:16:04.008Z,54.87
2022-08-13T01:17:07.162Z,55.07
2022-08-13T01:18:04.010Z,54.97
2022-08-13T01:19:04.018Z,54.97
2022-08-13T01:20:04.041Z,54.68
2022-08-13T01:21:09.768Z,55.45
2022-08-13T01:22:04.014Z,55.16
2022-08-13T01:23:04.067Z,55.16
2022-08-13T01:24:04.049Z,55.07
2022-08-13T01:25:06.063Z,55.55
2022-08-13T01:26:09.107Z,55.26
2022-08-13T01:27:04.044Z,55.55
2022-08-13T01:28:04.034Z,55.45
2022-08-13T01:29:04.044Z,55.55
2022-08-13T01:30:04.040Z,55.83
2022-08-13T01:31:04.041Z,55.55
2022-08-13T01:32:04.046Z,55.62
2022-08-13T01:33:04.222Z,55.65
2022-08-13T01:34:04.849Z,55.55
2022-08-13T01:35:04.058Z,56.29
2022-08-13T01:36:04.063Z,56.41
2022-08-13T01:37:04.064Z,56.39
2022-08-13T01:38:04.571Z,56.39
2022-08-13T01:39:04.079Z,56.00
2022-08-13T01:40:04.146Z,56.22
2022-08-13T01:41:04.088Z,56.20
2022-08-13T01:42:04.082Z,56.58
2022-08-13T01:43:21.813Z,56.68
2022-08-13T01:44:04.090Z,56.71
2022-08-13T01:45:05.283Z,56.41
2022-08-13T01:46:04.096Z,56.96
2022-08-13T01:47:04.098Z,56.87
2022-08-13T01:48:05.251Z,56.77
2022-08-13T01:49:04.117Z,57.26
2022-08-13T01:50:04.632Z,57.26
2022-08-13T01:51:04.116Z,56.87
2022-08-13T01:52:04.146Z,56.68
2022-08-13T01:53:05.015Z,56.48
2022-08-13T01:54:29.909Z,56.77
2022-08-13T01:55:04.122Z,57.06
2022-08-13T01:56:15.123Z,57.16
2022-08-13T01:57:04.381Z,57.06
2022-08-13T01:58:04.183Z,57.45
2022-08-13T01:59:10.305Z,57.06
2022-08-13T02:00:04.148Z,57.64
2022-08-13T02:01:08.943Z,57.35
2022-08-13T02:02:04.648Z,57.54
2022-08-13T02:03:04.149Z,57.45
2022-08-13T02:04:04.153Z,57.54
2022-08-13T02:05:04.178Z,57.84
2022-08-13T02:06:24.276Z,57.64
2022-08-13T02:07:05.661Z,57.74
2022-08-13T02:08:05.680Z,57.45
2022-08-13T02:09:04.173Z,57.54
2022-08-13T02:10:04.193Z,57.35
2022-08-13T02:11:04.183Z,58.12
2022-08-13T02:12:04.199Z,58.03
2022-08-13T02:13:04.192Z,58.22
2022-08-13T02:14:04.188Z,58.22
2022-08-13T02:15:04.603Z,58.51
2022-08-13T02:16:04.232Z,58.32
2022-08-13T02:17:04.213Z,58.70
2022-08-13T02:18:04.198Z,58.03
2022-08-13T02:19:16.738Z,58.51
2022-08-13T02:20:04.205Z,58.32
2022-08-13T02:21:11.484Z,58.42
2022-08-13T02:22:09.282Z,58.12
2022-08-13T02:23:04.221Z,58.12
2022-08-13T02:24:04.217Z,58.22
2022-08-13T02:25:04.230Z,58.32
2022-08-13T02:26:04.230Z,58.80
2022-08-13T02:27:04.244Z,58.12
2022-08-13T02:28:04.233Z,58.12
2022-08-13T02:29:04.275Z,58.22
2022-08-13T02:30:04.245Z,58.42
2022-08-13T02:31:04.237Z,58.22
2022-08-13T02:32:16.119Z,58.10
2022-08-13T02:33:04.245Z,58.22
2022-08-13T02:34:04.251Z,58.77
2022-08-13T02:35:04.251Z,58.51
2022-08-13T02:36:04.259Z,58.97
2022-08-13T02:37:23.112Z,59.06
2022-08-13T02:38:04.259Z,58.97
2022-08-13T02:39:04.271Z,58.97
2022-08-13T02:40:04.410Z,59.06
2022-08-13T02:41:04.273Z,58.77
2022-08-13T02:42:04.289Z,58.68
2022-08-13T02:43:04.548Z,58.70
2022-08-13T02:44:04.299Z,58.77
2022-08-13T02:45:04.881Z,58.58
2022-08-13T02:46:04.290Z,59.06
2022-08-13T02:47:04.290Z,58.68
2022-08-13T02:48:04.290Z,58.48
2022-08-13T02:49:16.490Z,58.77
2022-08-13T02:50:04.308Z,58.90
2022-08-13T02:51:04.296Z,58.80
2022-08-13T02:52:07.530Z,58.70
2022-08-13T02:53:04.306Z,58.68
2022-08-13T02:54:04.373Z,58.58
2022-08-13T02:55:04.314Z,58.48
2022-08-13T02:56:04.322Z,58.68
2022-08-13T02:57:04.736Z,58.58
2022-08-13T02:58:04.332Z,59.06
2022-08-13T02:59:04.326Z,59.35
2022-08-13T03:00:06.399Z,59.16
2022-08-13T03:01:04.378Z,58.97
2022-08-13T03:02:05.230Z,58.68
2022-08-13T03:03:05.192Z,59.45
2022-08-13T03:04:04.334Z,59.45
2022-08-13T03:05:06.387Z,59.74
2022-08-13T03:06:04.350Z,59.83
2022-08-13T03:07:04.351Z,59.74
2022-08-13T03:08:04.386Z,59.93
2022-08-13T03:09:04.371Z,59.74
2022-08-13T03:10:04.384Z,59.83
2022-08-13T03:11:04.360Z,59.64
2022-08-13T03:12:04.361Z,59.83
2022-08-13T03:13:04.378Z,59.35
2022-08-13T03:14:07.554Z,59.64
2022-08-13T03:15:04.374Z,59.93
2022-08-13T03:16:04.455Z,59.83
2022-08-13T03:17:04.383Z,59.83
2022-08-13T03:18:04.382Z,59.93
2022-08-13T03:19:04.398Z,59.74
2022-08-13T03:20:04.392Z,59.74
2022-08-13T03:21:04.399Z,59.83
2022-08-13T03:22:04.399Z,60.71
2022-08-13T03:23:04.408Z,60.80
2022-08-13T03:24:04.854Z,60.61
2022-08-13T03:25:04.400Z,61.28
2022-08-13T03:26:04.411Z,60.89
2022-08-13T03:27:04.410Z,61.44
2022-08-13T03:28:04.441Z,61.38
2022-08-13T03:29:04.424Z,61.44
2022-08-13T03:30:08.251Z,61.16
2022-08-13T03:31:04.419Z,60.96
2022-08-13T03:32:04.441Z,60.96
2022-08-13T03:33:04.421Z,61.25
2022-08-13T03:34:04.537Z,60.77
2022-08-13T03:35:10.677Z,61.25
2022-08-13T03:36:04.428Z,61.44
2022-08-13T03:37:04.459Z,61.83
2022-08-13T03:38:06.088Z,61.35
2022-08-13T03:39:04.447Z,61.16
2022-08-13T03:40:04.636Z,61.25
2022-08-13T03:41:04.447Z,61.64
2022-08-13T03:42:04.463Z,61.44
2022-08-13T03:43:04.485Z,61.54
2022-08-13T03:44:10.486Z,61.25
2022-08-13T03:45:04.475Z,61.25
2022-08-13T03:46:04.482Z,61.54
2022-08-13T03:47:29.722Z,62.02
2022-08-13T03:48:04.491Z,61.74
2022-08-13T03:49:04.471Z,62.12
2022-08-13T03:50:04.485Z,62.41
2022-08-13T03:51:04.476Z,62.31
2022-08-13T03:52:04.477Z,61.93
2022-08-13T03:53:04.480Z,62.02
2022-08-13T03:54:04.679Z,61.93
2022-08-13T03:55:04.487Z,61.93
2022-08-13T03:56:04.500Z,62.02
2022-08-13T03:57:04.526Z,61.83
2022-08-13T03:58:14.155Z,61.93
2022-08-13T03:59:04.495Z,61.64
2022-08-13T04:00:10.413Z,61.93
2022-08-13T04:01:04.512Z,62.22
2022-08-13T04:02:07.417Z,61.83
2022-08-13T04:03:04.505Z,62.12
2022-08-13T04:04:04.517Z,62.51
2022-08-13T04:05:04.516Z,62.31
2022-08-13T04:06:04.520Z,62.12
2022-08-13T04:07:04.533Z,62.60
2022-08-13T04:08:04.535Z,62.51
2022-08-13T04:09:04.539Z,62.51
2022-08-13T04:10:04.819Z,62.41
2022-08-13T04:11:05.061Z,62.12
2022-08-13T04:12:05.929Z,62.51
2022-08-13T04:13:04.540Z,62.41
2022-08-13T04:14:37.212Z,62.22
2022-08-13T04:15:04.541Z,62.22
2022-08-13T04:16:04.566Z,62.22
2022-08-13T04:17:04.552Z,62.60
2022-08-13T04:18:05.385Z,62.31
2022-08-13T04:19:05.632Z,62.22
2022-08-13T04:20:04.578Z,62.31
2022-08-13T04:21:04.601Z,62.22
2022-08-13T04:22:04.558Z,62.60
2022-08-13T04:23:04.556Z,62.51
2022-08-13T04:24:04.566Z,62.31
2022-08-13T04:25:04.561Z,62.41
2022-08-13T04:26:04.574Z,62.70
2022-08-13T04:27:04.570Z,62.70
2022-08-13T04:28:04.697Z,62.31
2022-08-13T04:29:04.579Z,62.60
2022-08-13T04:30:04.589Z,62.51
2022-08-13T04:31:06.190Z,62.60
2022-08-13T04:32:04.589Z,62.60
2022-08-13T04:33:22.053Z,62.89
2022-08-13T04:34:30.153Z,62.79
2022-08-13T04:35:08.260Z,62.99
2022-08-13T04:36:04.589Z,63.28
2022-08-13T04:37:04.865Z,63.09
2022-08-13T04:38:04.600Z,63.47
2022-08-13T04:39:04.601Z,63.85
2022-08-13T04:40:09.770Z,63.37
2022-08-13T04:41:04.688Z,62.99
2022-08-13T04:42:04.615Z,63.37
2022-08-13T04:43:05.022Z,62.99
2022-08-13T04:44:04.914Z,63.18
2022-08-13T04:45:12.044Z,63.47
2022-08-13T04:46:04.620Z,63.09
2022-08-13T04:47:04.630Z,63.67
2022-08-13T04:48:04.630Z,62.79
2022-08-13T04:49:04.943Z,63.09
2022-08-13T04:50:10.055Z,63.18
2022-08-13T04:51:04.642Z,62.99
2022-08-13T04:52:04.649Z,63.47
2022-08-13T04:53:05.401Z,63.28
2022-08-13T04:54:04.718Z,63.85
2022-08-13T04:55:04.652Z,63.09
2022-08-13T04:56:13.065Z,63.37
2022-08-13T04:57:04.674Z,63.09
2022-08-13T04:58:04.655Z,63.57
2022-08-13T04:59:04.645Z,63.28
2022-08-13T05:00:04.660Z,63.47
2022-08-13T05:01:49.217Z,62.89
2022-08-13T05:02:04.697Z,63.09
2022-08-13T05:03:04.666Z,63.67
2022-08-13T05:04:12.122Z,62.99
2022-08-13T05:05:04.685Z,63.47
2022-08-13T05:06:04.697Z,63.09
2022-08-13T05:07:04.686Z,63.09
2022-08-13T05:08:04.682Z,63.37
2022-08-13T05:09:04.679Z,63.28
2022-08-13T05:10:04.685Z,62.89
2022-08-13T05:11:14.139Z,62.70
2022-08-13T05:12:06.109Z,62.70
2022-08-13T05:13:05.283Z,63.09
2022-08-13T05:14:09.951Z,63.47
2022-08-13T05:15:05.643Z,63.37
2022-08-13T05:16:04.729Z,63.09
2022-08-13T05:17:04.767Z,62.73
2022-08-13T05:18:04.736Z,63.76
2022-08-13T05:19:04.723Z,63.47
2022-08-13T05:20:04.731Z,63.02
2022-08-13T05:21:05.606Z,63.12
2022-08-13T05:22:04.723Z,63.31
2022-08-13T05:26:06.002Z,63.40
2022-08-13T05:26:20.123Z,63.40
2022-08-13T05:26:22.482Z,63.12
2022-08-13T05:26:22.712Z,62.54
2022-08-13T05:27:09.794Z,63.12
2022-08-13T05:28:04.741Z,63.40
2022-08-13T05:29:13.394Z,63.12
2022-08-13T05:30:29.249Z,63.12
2022-08-13T05:31:04.765Z,62.82
2022-08-13T05:32:04.790Z,62.73
2022-08-13T05:33:10.093Z,62.73
2022-08-13T05:34:05.967Z,62.82
2022-08-13T05:35:04.770Z,63.02
2022-08-13T05:38:08.676Z,62.34
2022-08-13T05:38:15.465Z,62.34
2022-08-13T05:38:15.718Z,62.15
2022-08-13T05:39:04.811Z,62.73
2022-08-13T05:40:04.951Z,62.34
2022-08-13T05:41:04.800Z,62.54
2022-08-13T05:42:07.603Z,62.73
2022-08-13T05:43:04.888Z,62.73
2022-08-13T05:44:04.849Z,62.34
2022-08-13T05:45:08.998Z,62.63
2022-08-13T05:46:05.691Z,62.57
2022-08-13T05:47:04.819Z,62.76
2022-08-13T05:48:04.865Z,62.76
2022-08-13T05:49:04.821Z,62.08
2022-08-13T05:50:04.813Z,61.99
2022-08-13T05:51:04.847Z,61.60
2022-08-13T05:52:36.822Z,61.51
2022-08-13T05:53:04.849Z,61.51
2022-08-13T05:56:09.738Z,61.51
2022-08-13T05:56:10.689Z,61.02
2022-08-13T05:56:15.123Z,61.41
2022-08-13T05:57:04.912Z,61.31
2022-08-13T05:58:04.871Z,61.02
2022-08-13T05:59:04.839Z,60.73
2022-08-13T06:00:04.869Z,60.93
2022-08-13T06:01:12.612Z,60.44
2022-08-13T06:02:04.849Z,61.12
2022-08-13T06:03:06.193Z,61.41
2022-08-13T06:04:15.477Z,61.12
2022-08-13T06:05:04.876Z,61.73
2022-08-13T06:06:11.739Z,61.51
2022-08-13T06:07:04.918Z,62.18
2022-08-13T06:08:04.893Z,61.89
2022-08-13T06:09:09.634Z,61.22
2022-08-13T06:10:04.899Z,61.25
2022-08-13T06:11:04.908Z,61.41
2022-08-13T06:12:25.621Z,60.47
2022-08-13T06:13:06.767Z,61.22
2022-08-13T06:14:06.977Z,61.51
2022-08-13T06:15:06.634Z,61.60
2022-08-13T06:16:13.751Z,61.25
2022-08-13T06:17:05.749Z,61.34
2022-08-13T06:18:04.929Z,61.73
2022-08-13T06:19:06.934Z,61.54
2022-08-13T06:20:04.921Z,61.34
2022-08-13T06:21:08.806Z,61.54
2022-08-13T06:22:04.933Z,61.25
2022-08-13T06:23:04.929Z,61.25
2022-08-13T06:24:04.936Z,60.76
2022-08-13T06:25:04.940Z,61.25
2022-08-13T06:26:04.952Z,60.76
2022-08-13T06:27:04.976Z,60.47
2022-08-13T06:28:05.012Z,60.76
2022-08-13T06:29:10.852Z,60.67
2022-08-13T06:30:04.967Z,60.57
2022-08-13T06:31:04.982Z,60.38
2022-08-13T06:32:04.992Z,60.09
2022-08-13T06:33:58.754Z,59.83
2022-08-13T06:34:09.522Z,59.80
2022-08-13T06:35:04.994Z,60.02
2022-08-13T06:36:07.955Z,60.31
2022-08-13T06:37:04.995Z,60.11
2022-08-13T06:38:05.002Z,60.28
2022-08-13T06:39:05.003Z,60.02
2022-08-13T06:40:15.140Z,59.73
2022-08-13T06:41:05.036Z,59.73
2022-08-13T06:42:05.021Z,60.41
2022-08-13T06:43:05.036Z,60.69
2022-08-13T06:44:05.028Z,59.83
2022-08-13T06:45:05.034Z,60.11
2022-08-13T06:46:05.043Z,60.31
2022-08-13T06:47:05.043Z,59.92
2022-08-13T06:48:05.339Z,60.21
2022-08-13T06:49:06.460Z,59.83
2022-08-13T06:50:05.060Z,59.92
2022-08-13T06:51:05.117Z,60.11
2022-08-13T06:52:05.084Z,59.83
2022-08-13T06:54:23.414Z,59.83
2022-08-13T06:54:26.428Z,59.92
2022-08-13T06:55:40.132Z,59.92
2022-08-13T06:56:34.487Z,60.02
2022-08-13T06:57:12.346Z,60.31
2022-08-13T06:58:09.002Z,59.53
2022-08-13T06:59:13.058Z,59.53
2022-08-13T07:00:25.139Z,59.53
2022-08-13T07:01:05.195Z,60.02
2022-08-13T07:02:10.277Z,59.63
2022-08-13T07:03:05.116Z,59.44
2022-08-13T07:04:05.125Z,60.41
2022-08-13T07:05:07.763Z,60.02
2022-08-13T07:06:05.122Z,60.02
2022-08-13T07:07:05.128Z,60.21
2022-08-13T07:08:05.879Z,59.63
2022-08-13T07:09:05.710Z,60.11
2022-08-13T07:10:05.165Z,59.34
2022-08-13T07:11:05.146Z,59.86
2022-08-13T07:12:05.153Z,59.83
2022-08-13T07:13:05.153Z,59.86
2022-08-13T07:14:05.453Z,59.56
2022-08-13T07:15:08.460Z,59.53
2022-08-13T07:16:05.167Z,59.73
2022-08-13T07:17:05.175Z,59.76
2022-08-13T07:18:05.175Z,59.25
2022-08-13T07:19:06.919Z,60.02
2022-08-13T07:20:07.760Z,60.14
2022-08-13T07:21:05.195Z,59.86
2022-08-13T07:22:05.196Z,59.76
2022-08-13T07:24:36.403Z,59.83
2022-08-13T07:24:37.495Z,59.86
2022-08-13T07:25:05.207Z,60.05
2022-08-13T07:26:08.439Z,59.95
2022-08-13T07:27:05.236Z,59.95
2022-08-13T07:28:05.524Z,60.05
2022-08-13T07:29:05.231Z,60.24
2022-08-13T07:30:05.235Z,59.47
2022-08-13T07:31:10.943Z,59.66
2022-08-13T07:32:05.731Z,59.56
2022-08-13T07:33:05.257Z,59.86
2022-08-13T07:34:05.258Z,59.66
2022-08-13T07:35:05.268Z,59.79
2022-08-13T07:36:09.997Z,59.11
2022-08-13T07:37:05.274Z,59.79
2022-08-13T07:38:18.565Z,59.50
2022-08-13T07:39:07.051Z,59.40
2022-08-13T07:40:05.314Z,59.31
2022-08-13T07:41:05.289Z,59.59
2022-08-13T07:42:05.290Z,59.01
2022-08-13T07:43:05.352Z,59.05
2022-08-13T07:44:05.312Z,58.72
2022-08-13T07:46:25.262Z,58.56
2022-08-13T07:46:26.051Z,59.82
2022-08-13T07:47:10.466Z,60.01
2022-08-13T07:48:16.222Z,58.30
2022-08-13T07:49:05.422Z,58.39
2022-08-13T07:50:05.349Z,57.81
2022-08-13T07:51:05.576Z,57.71
2022-08-13T07:52:05.379Z,57.65
2022-08-13T07:53:05.374Z,57.43
2022-08-13T07:54:08.996Z,57.62
2022-08-13T07:55:18.555Z,57.62
2022-08-13T07:56:25.808Z,56.36
2022-08-13T07:58:08.300Z,56.46
2022-08-13T07:59:08.262Z,56.75
2022-08-13T08:01:12.347Z,57.62
2022-08-13T08:02:20.105Z,58.11
2022-08-13T08:04:06.284Z,57.53
2022-08-13T08:05:06.247Z,57.81
2022-08-13T08:07:10.616Z,57.79
2022-08-13T08:08:10.579Z,57.50
2022-08-13T08:10:14.372Z,58.88
2022-08-13T08:11:22.923Z,58.95
2022-08-13T08:13:18.405Z,58.47
2022-08-13T08:14:18.370Z,58.65
2022-08-13T08:15:24.213Z,58.75
2022-08-13T08:16:18.384Z,58.85
2022-08-13T08:18:16.718Z,58.85
2022-08-13T08:18:33.277Z,58.95
2022-08-13T08:20:06.408Z,58.85
2022-08-13T08:20:20.394Z,58.65
2022-08-13T08:21:48.036Z,58.75
2022-08-13T08:22:25.911Z,58.95
2022-08-13T08:23:18.435Z,58.37
2022-08-13T08:24:29.651Z,58.27
2022-08-13T08:25:20.627Z,58.95
2022-08-13T08:26:18.453Z,58.95
2022-08-13T08:27:18.932Z,58.95
2022-08-13T08:28:35.902Z,58.56
2022-08-13T08:29:21.117Z,58.47
2022-08-13T08:30:18.455Z,57.79
2022-08-13T08:31:21.172Z,57.69
2022-08-13T08:32:22.730Z,57.69
2022-08-13T08:33:51.406Z,57.88
2022-08-13T08:34:18.516Z,58.56
2022-08-13T08:35:18.487Z,58.27
2022-08-13T08:36:21.170Z,58.47
2022-08-13T08:37:18.511Z,58.47
2022-08-13T08:38:28.387Z,58.56
2022-08-13T08:39:18.551Z,58.85
2022-08-13T08:40:30.776Z,58.95
2022-08-13T08:41:18.992Z,59.23
2022-08-13T08:42:18.539Z,59.05
2022-08-13T08:43:22.384Z,59.23
2022-08-13T08:44:18.534Z,59.43
2022-08-13T08:45:18.546Z,59.05
2022-08-13T08:46:18.575Z,58.65
2022-08-13T08:47:18.562Z,58.85
2022-08-13T08:48:18.558Z,58.56
2022-08-13T08:49:26.390Z,58.65
2022-08-13T08:50:27.134Z,58.65
2022-08-13T08:51:21.197Z,58.75
2022-08-13T08:52:18.581Z,59.05
2022-08-13T08:53:34.273Z,58.95
2022-08-13T08:54:31.162Z,58.27
2022-08-13T08:55:22.855Z,58.59
2022-08-13T08:56:18.602Z,58.49
2022-08-13T08:57:18.604Z,58.49
2022-08-13T08:58:37.932Z,58.49
2022-08-13T08:59:21.604Z,58.88
2022-08-13T09:00:18.667Z,58.59
2022-08-13T09:01:19.557Z,58.78
2022-08-13T09:02:18.809Z,58.78
2022-08-13T09:03:18.671Z,58.78
2022-08-13T09:04:18.768Z,58.78
2022-08-13T09:05:20.329Z,58.59
2022-08-13T09:06:22.139Z,58.49
2022-08-13T09:07:18.664Z,58.30
2022-08-13T09:08:18.679Z,58.20
2022-08-13T09:09:19.681Z,58.78
2022-08-13T09:10:28.777Z,58.91
2022-08-13T09:11:22.842Z,58.69
2022-08-13T09:12:18.753Z,58.62
2022-08-13T09:13:18.776Z,59.00
2022-08-13T09:14:18.694Z,59.10
2022-08-13T09:15:18.794Z,58.81
2022-08-13T09:16:18.698Z,58.91
2022-08-13T09:17:18.721Z,58.42
2022-08-13T09:18:18.715Z,58.33
2022-08-13T09:19:28.129Z,58.42
2022-08-13T09:20:19.033Z,58.81
2022-08-13T09:21:26.406Z,58.81
2022-08-13T09:22:21.574Z,59.00
2022-08-13T09:23:45.872Z,58.81
2022-08-13T09:24:19.940Z,58.42
2022-08-13T09:25:18.759Z,58.52
2022-08-13T09:26:27.881Z,58.72
2022-08-13T09:27:18.772Z,58.62
2022-08-13T09:28:22.781Z,58.81
2022-08-13T09:29:18.786Z,58.84
2022-08-13T09:30:23.520Z,57.97
2022-08-13T09:31:19.808Z,57.78
2022-08-13T09:32:32.330Z,58.65
2022-08-13T09:33:49.707Z,58.26
2022-08-13T09:34:18.826Z,56.81
2022-08-13T09:35:18.819Z,56.90
2022-08-13T09:36:21.548Z,56.81
2022-08-13T09:37:18.848Z,56.90
2022-08-13T09:38:21.796Z,56.81
2022-08-13T09:39:18.853Z,56.90
2022-08-13T09:40:32.535Z,56.90
2022-08-13T09:41:20.091Z,56.81
2022-08-13T09:42:22.396Z,56.90
2022-08-13T09:43:44.072Z,56.81
2022-08-13T09:44:18.874Z,57.39
2022-08-13T09:45:18.899Z,57.29
2022-08-13T09:46:21.115Z,57.19
2022-08-13T09:48:32.717Z,57.68
2022-08-13T09:48:35.101Z,57.39
2022-08-13T09:49:18.911Z,57.29
2022-08-13T09:50:18.914Z,57.48
2022-08-13T09:51:55.740Z,57.58
2022-08-13T09:52:20.050Z,57.87
2022-08-13T09:53:18.940Z,57.68
2022-08-13T09:54:18.945Z,57.58
2022-08-13T09:55:19.761Z,57.68
2022-08-13T09:56:18.952Z,57.78
2022-08-13T09:57:18.958Z,57.48
2022-08-13T09:58:34.933Z,57.58
2022-08-13T09:59:31.338Z,57.58
2022-08-13T10:00:18.983Z,57.39
2022-08-13T10:01:33.360Z,57.39
2022-08-13T10:02:19.000Z,57.48
2022-08-13T10:03:18.991Z,57.78
2022-08-13T10:04:19.000Z,57.78
2022-08-13T10:05:19.018Z,57.87
2022-08-13T10:06:19.003Z,57.58
2022-08-13T10:07:21.352Z,57.58
2022-08-13T10:08:19.031Z,57.78
2022-08-13T10:09:19.021Z,57.78
2022-08-13T10:10:31.001Z,57.58
2022-08-13T10:11:23.288Z,57.58
2022-08-13T10:12:21.120Z,58.06
2022-08-13T10:13:20.855Z,57.97
2022-08-13T10:14:19.087Z,57.87
2022-08-13T10:15:23.705Z,57.87
2022-08-13T10:16:19.079Z,57.68
2022-08-13T10:17:19.067Z,58.55
2022-08-13T10:18:19.069Z,58.55
2022-08-13T10:19:19.089Z,58.45
2022-08-13T10:20:20.127Z,58.16
2022-08-13T10:21:21.131Z,58.16
2022-08-13T10:22:23.707Z,57.87
2022-08-13T10:23:19.102Z,57.78
2022-08-13T10:24:19.104Z,58.06
2022-08-13T10:25:19.161Z,58.26
2022-08-13T10:26:19.129Z,58.65
2022-08-13T10:27:19.128Z,58.06
2022-08-13T10:28:28.089Z,57.78
2022-08-13T10:30:07.074Z,57.78
2022-08-13T10:30:59.701Z,58.06
2022-08-13T10:31:50.265Z,58.55
2022-08-13T10:32:19.168Z,58.45
2022-08-13T10:33:19.155Z,58.84
2022-08-13T10:34:19.350Z,59.71
2022-08-13T10:35:19.176Z,59.23
2022-08-13T10:36:19.181Z,59.52
2022-08-13T10:37:19.197Z,59.42
2022-08-13T10:38:19.833Z,58.94
2022-08-13T10:39:19.228Z,58.74
2022-08-13T10:40:19.254Z,58.94
2022-08-13T10:41:19.206Z,58.84
2022-08-13T10:42:19.206Z,58.84
2022-08-13T10:43:24.524Z,59.13
2022-08-13T10:44:24.950Z,59.13
2022-08-13T10:45:19.241Z,59.23
2022-08-13T10:46:27.437Z,59.33
2022-08-13T10:47:37.194Z,59.61
2022-08-13T10:48:19.935Z,60.00
2022-08-13T10:49:22.004Z,60.20
2022-08-13T10:50:19.246Z,60.68
2022-08-13T10:51:26.609Z,60.85
2022-08-13T10:52:22.622Z,61.07
2022-08-13T10:53:19.268Z,61.04
2022-08-13T10:54:30.419Z,62.04
2022-08-13T10:55:19.319Z,61.24
2022-08-13T10:56:19.282Z,60.94
2022-08-13T10:57:19.340Z,60.85
2022-08-13T10:58:45.082Z,60.85
2022-08-13T10:59:19.306Z,60.94
2022-08-13T11:00:19.361Z,60.75
2022-08-13T11:01:19.323Z,60.65
2022-08-13T11:02:20.926Z,60.94
2022-08-13T11:03:19.396Z,60.85
2022-08-13T11:04:19.327Z,60.85
2022-08-13T11:05:19.340Z,60.85
2022-08-13T11:06:19.337Z,60.85
2022-08-13T11:07:19.345Z,61.04
2022-08-13T11:08:19.364Z,60.85
2022-08-13T11:09:25.973Z,60.65
2022-08-13T11:10:19.446Z,61.33
2022-08-13T11:11:37.055Z,60.55
2022-08-13T11:12:22.112Z,61.14
2022-08-13T11:13:19.395Z,60.75
2022-08-13T11:14:22.500Z,60.85
2022-08-13T11:15:19.392Z,61.43
2022-08-13T11:16:19.417Z,61.52
2022-08-13T11:17:34.976Z,61.91
2022-08-13T11:18:19.403Z,61.62
2022-08-13T11:19:19.414Z,61.62
2022-08-13T11:20:19.694Z,61.52
2022-08-13T11:22:19.916Z,61.91
2022-08-13T11:22:26.857Z,62.40
2022-08-13T11:23:19.467Z,62.17
2022-08-13T11:24:19.449Z,62.59
2022-08-13T11:25:55.423Z,62.75
2022-08-13T11:26:22.834Z,62.79
2022-08-13T11:27:19.474Z,62.85
2022-08-13T11:28:19.825Z,62.46
2022-08-13T11:29:19.463Z,62.49
2022-08-13T11:30:31.730Z,63.07
2022-08-13T11:31:19.475Z,63.04
2022-08-13T11:32:22.848Z,62.85
2022-08-13T11:33:19.486Z,62.98
2022-08-13T11:34:19.483Z,62.75
2022-08-13T11:35:19.490Z,62.88
2022-08-13T11:36:19.499Z,62.88
2022-08-13T11:37:19.499Z,62.49
2022-08-13T11:38:19.559Z,62.59
2022-08-13T11:39:19.548Z,62.98
2022-08-13T11:40:30.442Z,62.49
2022-08-13T11:41:19.974Z,62.59
2022-08-13T11:42:19.550Z,62.69
2022-08-13T11:43:19.544Z,62.69
2022-08-13T11:44:20.316Z,62.49
2022-08-13T11:45:19.643Z,62.40
2022-08-13T11:46:20.560Z,62.49
2022-08-13T11:47:30.642Z,63.07
2022-08-13T11:48:29.701Z,62.59
2022-08-13T11:49:19.803Z,62.37
2022-08-13T11:50:30.669Z,62.95
2022-08-13T11:51:19.573Z,63.04
2022-08-13T11:52:27.891Z,63.43
2022-08-13T11:53:20.568Z,63.34
2022-08-13T11:54:30.035Z,63.46
2022-08-13T11:55:19.599Z,63.24
2022-08-13T11:56:22.874Z,63.14
2022-08-13T11:57:19.613Z,63.27
2022-08-13T11:58:32.627Z,63.24
2022-08-13T11:59:19.650Z,63.07
2022-08-13T12:00:29.821Z,62.59
2022-08-13T12:01:24.881Z,62.66
2022-08-13T12:02:26.608Z,62.40
2022-08-13T12:03:22.983Z,62.95
2022-08-13T12:04:23.637Z,62.85
2022-08-13T12:05:19.751Z,62.85
2022-08-13T12:06:19.797Z,62.46
2022-08-13T12:07:19.674Z,62.49
2022-08-13T12:09:21.740Z,62.95
2022-08-13T12:09:24.330Z,63.92
2022-08-13T12:10:38.947Z,64.72
2022-08-13T12:11:19.679Z,64.98
2022-08-13T12:12:21.892Z,65.37
2022-08-13T12:13:21.434Z,65.75
2022-08-13T12:14:19.700Z,65.66
2022-08-13T12:15:38.226Z,65.75
2022-08-13T12:16:19.708Z,66.24
2022-08-13T12:17:48.628Z,66.92
2022-08-13T12:18:19.725Z,66.34
2022-08-13T12:19:23.841Z,65.75
2022-08-13T12:20:21.107Z,65.95
2022-08-13T12:21:22.165Z,65.56
2022-08-13T12:22:19.744Z,65.56
2022-08-13T12:23:21.406Z,66.34
2022-08-13T12:24:19.789Z,65.66
2022-08-13T12:26:00.830Z,65.08
2022-08-13T12:26:19.788Z,64.50
2022-08-13T12:27:19.777Z,64.20
2022-08-13T12:28:22.594Z,64.11
2022-08-13T12:29:19.782Z,63.14
2022-08-13T12:30:21.745Z,63.24
2022-08-13T12:31:19.797Z,62.56
2022-08-13T12:32:19.812Z,62.37
2022-08-13T12:33:22.294Z,62.95
2022-08-13T12:34:25.101Z,63.04
2022-08-13T12:35:19.814Z,63.34
2022-08-13T12:36:19.820Z,62.85
2022-08-13T12:37:23.036Z,63.17
2022-08-13T12:38:30.262Z,62.46
2022-08-13T12:39:22.111Z,62.66
2022-08-13T12:40:19.837Z,62.46
2022-08-13T12:41:19.849Z,62.56
2022-08-13T12:42:19.851Z,62.46
2022-08-13T12:43:45.751Z,62.98
2022-08-13T12:45:06.579Z,63.04
2022-08-13T12:45:53.930Z,62.49
2022-08-13T12:46:22.488Z,62.79
2022-08-13T12:47:22.250Z,62.79
2022-08-13T12:48:19.897Z,63.07
2022-08-13T12:49:19.893Z,62.30
2022-08-13T12:50:21.669Z,62.40
2022-08-13T12:51:19.923Z,62.49
2022-08-13T12:52:22.689Z,62.79
2022-08-13T12:53:38.308Z,62.69
2022-08-13T12:54:40.072Z,62.49
2022-08-13T12:55:33.013Z,62.59
2022-08-13T12:56:25.802Z,62.79
2022-08-13T12:57:27.659Z,62.88
2022-08-13T12:58:23.993Z,62.59